イスラマバード の空港の天気 - METARとTAF

イスラマバード国際空港 ( OPRN / ISB ) - パキスタン Islamabad
飛行場実況気象(Metar)
観測時間01/20 22:00 PKT (01/20 17:00 UTC)
風向・風速北西 3m/s
視程4000m
天気現象煙霧
少しの雲 雲底高度 3050m
全天の4割程度の雲 雲底高度 5180m
気温11℃
湿度62%
気圧-
METAROPRN 201700Z 31006KT 4000 HZ FEW100 SCT170 11/04 Q1022.0/30.18
過去の天気等 Google飛行場航空写真 Wunderground天気予報

過去48時間のMETAR

飛行場予報(TAF)
発表時間: 1/20 14:30 PKT (1/20 09:30 UTC)
予報対象時間: 20日17時 PKT ~ 21日23時 PKT
風向・風速西北西 5m/s
視程10km以上
なし
20日17時 PKT ~ 20日18時 PKT に一時的に
風向・風速南西 5m/s 瞬間風速 10m/s
視程2,000m
なし
21日1時 PKT ~ 21日3時 PKT に徐々に
風向・風速南東 5m/s
視程800m
天気現象
なし
21日6時 PKT ~ 21日10時 PKT に一時的に
風向・風速南東 3m/s
視程800m
天気現象もや
なし
21日10時 PKT ~ 21日12時 PKT に一時的に
風向・風速西北西 5m/s
視程10km以上
なし
TAF OPRN 200930Z 2012/2118 30010KT CAVOK
TEMPO 2012/2013 23010G20KT 2000 NSC
BECMG 2020/2022 13010KT 0800 FG NSC
TEMPO 2101/2105 13005KT 0800 BR NSC
TEMPO 2105/2107 30010KT CAVOK